Time;durP1;ratioP1;P1;durP2;ratioP2;P2;SDS_P1;SDS_P2;PMS_P1;PMS_P2;Temp;Humidity;BMP_temperature;BMP_pressure;BME280_temperature;BME280_humidity;BME280_pressure;Samples;Min_cycle;Max_cycle;Signal;HPM_P1;HPM_P2
2023/04/05 00:01:24;;;;;;;5.35;2.50;;;3.60;99.90;;;;;;5069087;28;20094;-41
2023/04/05 00:03:54;;;;;;;6.00;2.72;;;3.60;99.90;;;;;;5069199;28;20135;-42
2023/04/05 00:06:27;;;;;;;6.72;2.72;;;3.60;99.90;;;;;;5068480;28;20121;-42
2023/04/05 00:09:02;;;;;;;8.55;2.40;;;3.50;99.90;;;;;;5051377;28;20067;-42
2023/04/05 00:11:29;;;;;;;5.75;2.53;;;3.50;99.90;;;;;;5062100;28;20624;-41
2023/04/05 00:13:56;;;;;;;7.82;3.15;;;3.50;99.90;;;;;;5068954;28;20057;-42
2023/04/05 00:16:22;;;;;;;5.63;2.33;;;3.50;99.90;;;;;;5068061;28;20051;-42
2023/04/05 00:18:50;;;;;;;6.90;2.50;;;3.40;99.90;;;;;;5069056;28;20052;-41
2023/04/05 00:21:21;;;;;;;5.82;2.55;;;3.40;99.90;;;;;;5068831;28;20515;-41
2023/04/05 00:23:55;;;;;;;7.53;2.60;;;3.40;99.90;;;;;;5067326;28;20071;-42
2023/04/05 00:26:21;;;;;;;9.98;3.35;;;3.30;99.90;;;;;;5067910;28;20048;-42
2023/04/05 00:28:47;;;;;;;7.53;2.90;;;3.30;99.90;;;;;;5068276;28;20052;-40
2023/04/05 00:31:13;;;;;;;6.43;3.20;;;3.30;99.90;;;;;;5068030;28;20114;-41
2023/04/05 00:33:39;;;;;;;4.82;2.45;;;3.30;99.90;;;;;;5068770;28;20048;-41
2023/04/05 00:36:13;;;;;;;7.88;2.88;;;3.30;99.90;;;;;;5068593;28;20189;-40
2023/04/05 00:38:39;;;;;;;5.15;2.70;;;3.20;99.90;;;;;;5067931;28;20056;-41
2023/04/05 00:41:05;;;;;;;6.57;2.35;;;3.20;99.90;;;;;;5068349;28;20565;-41
2023/04/05 00:43:31;;;;;;;8.38;2.85;;;3.10;99.90;;;;;;5068135;28;20128;-41
2023/04/05 00:45:57;;;;;;;8.15;2.63;;;3.10;99.90;;;;;;5068628;28;20078;-41
2023/04/05 00:48:24;;;;;;;6.15;2.58;;;3.10;99.90;;;;;;5067108;28;20048;-41
2023/04/05 00:50:51;;;;;;;7.00;2.65;;;3.10;99.90;;;;;;5068135;28;20854;-40
2023/04/05 00:53:20;;;;;;;8.10;3.00;;;3.10;99.90;;;;;;5067432;28;20048;-42
2023/04/05 00:55:52;;;;;;;5.80;3.03;;;3.10;99.90;;;;;;5068289;28;20058;-41
2023/04/05 00:58:21;;;;;;;7.80;3.00;;;3.00;99.90;;;;;;5067347;28;20048;-43
2023/04/05 01:01:13;;;;;;;6.53;2.60;;;3.00;99.90;;;;;;5068315;28;20052;-41
2023/04/05 01:03:43;;;;;;;6.53;3.08;;;3.00;99.90;;;;;;5066986;28;20562;-43
2023/04/05 01:06:53;;;;;;;5.18;2.13;;;3.00;99.90;;;;;;5064392;28;20055;-42
2023/04/05 01:09:42;;;;;;;7.13;3.20;;;3.00;99.90;;;;;;5066419;28;20135;-41
2023/04/05 01:12:10;;;;;;;10.65;2.90;;;3.00;99.90;;;;;;5067312;28;20052;-41
2023/04/05 01:14:49;;;;;;;5.28;2.85;;;3.00;99.90;;;;;;5073833;28;20078;-38
2023/04/05 01:17:20;;;;;;;9.30;3.28;;;2.90;99.90;;;;;;5049055;28;20044;-40
2023/04/05 01:19:52;;;;;;;6.55;3.55;;;2.90;99.90;;;;;;5067978;28;20490;-40
2023/04/05 01:22:43;;;;;;;7.60;3.00;;;2.90;99.90;;;;;;5059980;28;20051;-41
2023/04/05 01:25:46;;;;;;;8.38;3.42;;;2.90;99.90;;;;;;5059601;28;20049;-40
2023/04/05 01:28:26;;;;;;;7.20;3.28;;;2.90;99.90;;;;;;5066597;28;20052;-41
2023/04/05 01:31:13;;;;;;;5.95;2.75;;;2.90;99.90;;;;;;5052966;28;20056;-41
2023/04/05 01:34:07;;;;;;;8.10;3.08;;;2.80;99.90;;;;;;5062239;28;20060;-41
2023/04/05 01:36:36;;;;;;;5.57;2.85;;;2.80;99.90;;;;;;5066288;28;20119;-40
2023/04/05 01:39:04;;;;;;;7.38;2.95;;;2.80;99.90;;;;;;5067408;28;20055;-41
2023/04/05 01:41:30;;;;;;;7.28;3.08;;;2.80;99.90;;;;;;5065246;28;20048;-41
2023/04/05 01:43:56;;;;;;;6.60;3.15;;;2.80;99.90;;;;;;5067241;28;20059;-41
2023/04/05 01:46:22;;;;;;;7.57;3.05;;;2.70;99.90;;;;;;5067325;28;20418;-40
2023/04/05 01:48:47;;;;;;;7.80;3.00;;;2.80;99.90;;;;;;5067846;28;20055;-43
2023/04/05 01:51:13;;;;;;;9.57;3.58;;;2.70;99.90;;;;;;5067333;28;20041;-40
2023/04/05 01:53:39;;;;;;;9.07;3.60;;;2.70;99.90;;;;;;5066566;28;20181;-41
2023/04/05 01:56:05;;;;;;;8.85;3.60;;;2.70;99.90;;;;;;5067262;28;20052;-38
2023/04/05 01:58:31;;;;;;;10.52;3.80;;;2.60;99.90;;;;;;5066981;28;20492;-40
2023/04/05 02:00:56;;;;;;;9.43;3.50;;;2.60;99.90;;;;;;5067217;28;20593;-41
2023/04/05 02:03:23;;;;;;;8.13;3.05;;;2.60;99.90;;;;;;5065930;28;20051;-41
2023/04/05 02:05:49;;;;;;;7.70;3.72;;;2.50;99.90;;;;;;5068003;28;20052;-42
2023/04/05 02:08:15;;;;;;;8.20;3.38;;;2.50;99.90;;;;;;5066979;28;20095;-40
2023/04/05 02:10:41;;;;;;;7.10;3.65;;;2.50;99.90;;;;;;5066890;28;20514;-41
2023/04/05 02:13:07;;;;;;;7.22;3.38;;;2.50;99.90;;;;;;5067349;28;20044;-41
2023/04/05 02:15:32;;;;;;;6.63;3.08;;;2.40;99.90;;;;;;5066700;28;20053;-41
2023/04/05 02:18:01;;;;;;;7.68;3.95;;;2.40;99.90;;;;;;5067050;28;20044;-41
2023/04/05 02:20:28;;;;;;;7.80;4.15;;;2.40;99.90;;;;;;5052702;28;20056;-41
2023/04/05 02:22:54;;;;;;;7.30;3.25;;;2.40;99.90;;;;;;5067086;28;20060;-41
2023/04/05 02:25:19;;;;;;;6.32;3.22;;;2.30;99.90;;;;;;5067016;28;20060;-41
2023/04/05 02:27:45;;;;;;;10.85;4.20;;;2.30;99.90;;;;;;5066590;28;20119;-40
2023/04/05 02:30:14;;;;;;;9.63;3.65;;;2.20;99.90;;;;;;5050813;28;20052;-41
2023/04/05 02:32:46;;;;;;;9.15;3.55;;;2.20;99.90;;;;;;5063899;28;20136;-41
2023/04/05 02:35:12;;;;;;;7.53;3.58;;;2.20;99.90;;;;;;5067433;28;20114;-40
2023/04/05 02:37:38;;;;;;;8.10;3.65;;;2.20;99.90;;;;;;5066011;28;20048;-41
2023/04/05 02:40:08;;;;;;;8.15;3.47;;;2.20;99.90;;;;;;5067052;28;20056;-41
2023/04/05 02:42:35;;;;;;;7.10;3.47;;;2.10;99.90;;;;;;5066141;28;20494;-41
2023/04/05 02:45:01;;;;;;;7.80;3.63;;;2.10;99.90;;;;;;5067155;28;20574;-41
2023/04/05 02:47:26;;;;;;;7.53;3.38;;;2.10;99.90;;;;;;5066110;28;20139;-40
2023/04/05 02:49:52;;;;;;;8.07;3.90;;;2.00;99.90;;;;;;5066915;28;20568;-41
2023/04/05 02:52:17;;;;;;;8.70;3.83;;;2.00;99.90;;;;;;5067123;28;20079;-40
2023/04/05 02:54:45;;;;;;;9.00;3.42;;;2.00;99.90;;;;;;5051817;28;20070;-39
2023/04/05 02:57:10;;;;;;;7.20;3.85;;;1.90;99.90;;;;;;5070662;28;20048;-40
2023/04/05 02:59:37;;;;;;;6.82;3.50;;;1.90;99.90;;;;;;5069174;28;20067;-39
2023/04/05 03:02:06;;;;;;;8.07;3.70;;;1.90;99.90;;;;;;5052136;28;20059;-40
2023/04/05 03:04:33;;;;;;;10.48;4.05;;;1.90;99.90;;;;;;5069069;28;20071;-40
2023/04/05 03:07:03;;;;;;;10.80;4.15;;;1.90;99.90;;;;;;5070290;28;20041;-40
2023/04/05 03:09:32;;;;;;;9.02;4.18;;;1.90;99.90;;;;;;5069461;28;20415;-38
2023/04/05 03:12:04;;;;;;;7.30;3.70;;;1.80;99.90;;;;;;5070128;28;20501;-41
2023/04/05 03:14:30;;;;;;;9.00;3.35;;;1.80;99.90;;;;;;5068720;28;20071;-40
2023/04/05 03:16:57;;;;;;;9.50;4.30;;;1.80;99.90;;;;;;5069287;28;20049;-39
2023/04/05 03:19:25;;;;;;;12.63;4.32;;;1.80;99.90;;;;;;5070351;28;20052;-40
2023/04/05 03:21:51;;;;;;;9.00;3.58;;;1.70;99.90;;;;;;5068935;28;20037;-39
2023/04/05 03:24:17;;;;;;;9.90;3.90;;;1.70;99.90;;;;;;5070212;28;20072;-39
2023/04/05 03:26:45;;;;;;;7.68;3.83;;;1.70;99.90;;;;;;5069217;28;20036;-38
2023/04/05 03:29:11;;;;;;;7.97;3.97;;;1.70;99.90;;;;;;5051844;28;20131;-40
2023/04/05 03:31:37;;;;;;;8.25;3.42;;;1.70;99.90;;;;;;5069250;28;20136;-40
2023/04/05 03:34:03;;;;;;;9.30;3.53;;;1.60;99.90;;;;;;5069830;28;20048;-39
2023/04/05 03:36:29;;;;;;;7.45;3.10;;;1.60;99.90;;;;;;5068687;28;20044;-40
2023/04/05 03:38:55;;;;;;;6.60;3.85;;;1.50;99.90;;;;;;5069327;28;20048;-39
2023/04/05 03:41:21;;;;;;;9.40;4.00;;;1.50;99.90;;;;;;5069726;28;20044;-40
2023/04/05 03:43:48;;;;;;;10.57;4.38;;;1.40;99.90;;;;;;5068681;28;20512;-39
2023/04/05 03:46:14;;;;;;;7.57;3.45;;;1.40;99.90;;;;;;5070037;28;20052;-40
2023/04/05 03:48:40;;;;;;;7.97;3.47;;;1.40;99.90;;;;;;5050190;28;20048;-39
2023/04/05 03:51:06;;;;;;;5.97;3.58;;;1.30;99.90;;;;;;5069809;28;20421;-40
2023/04/05 03:53:32;;;;;;;7.18;3.78;;;1.30;99.90;;;;;;5067788;28;20505;-39
2023/04/05 03:55:58;;;;;;;8.82;4.45;;;1.30;99.90;;;;;;5068959;28;20068;-39
2023/04/05 03:58:27;;;;;;;8.27;4.00;;;1.30;99.90;;;;;;5069253;28;20131;-39
2023/04/05 04:00:54;;;;;;;10.23;4.05;;;1.20;99.90;;;;;;5069748;28;20179;-39
2023/04/05 04:03:20;;;;;;;9.93;4.93;;;1.20;99.90;;;;;;5069173;28;20082;-40
2023/04/05 04:05:46;;;;;;;8.65;3.67;;;1.20;99.90;;;;;;5067430;28;20048;-39
2023/04/05 04:08:12;;;;;;;8.55;4.00;;;1.20;99.90;;;;;;5068758;28;20634;-38
2023/04/05 04:10:38;;;;;;;11.35;4.38;;;1.20;99.90;;;;;;5067938;28;20059;-39
2023/04/05 04:13:03;;;;;;;8.10;3.58;;;1.20;99.90;;;;;;5051147;28;20413;-40
2023/04/05 04:15:30;;;;;;;7.63;4.00;;;1.20;99.90;;;;;;5068763;28;20056;-40
2023/04/05 04:17:55;;;;;;;7.53;4.00;;;1.10;99.90;;;;;;5067833;28;20049;-40
2023/04/05 04:20:21;;;;;;;8.70;4.18;;;1.10;99.90;;;;;;5068991;28;20052;-40
2023/04/05 04:22:47;;;;;;;9.90;4.90;;;1.10;99.90;;;;;;5067743;28;20079;-39
2023/04/05 04:25:15;;;;;;;10.05;4.63;;;1.10;99.90;;;;;;5068822;28;20048;-40
2023/04/05 04:27:42;;;;;;;10.57;4.00;;;1.00;99.90;;;;;;5068305;28;20055;-39
2023/04/05 04:30:10;;;;;;;8.32;4.22;;;1.00;99.90;;;;;;5068428;28;20048;-39
2023/04/05 04:32:53;;;;;;;9.55;4.10;;;1.00;99.90;;;;;;5050315;28;20044;-38
2023/04/05 04:35:27;;;;;;;8.23;4.25;;;1.00;99.90;;;;;;5065823;28;20586;-39
2023/04/05 04:37:58;;;;;;;11.70;4.97;;;1.00;99.90;;;;;;5065298;28;20155;-40
2023/04/05 04:40:38;;;;;;;7.10;3.78;;;1.00;99.90;;;;;;5068551;28;20452;-41
2023/04/05 04:43:18;;;;;;;9.00;4.55;;;0.90;99.90;;;;;;5067895;28;20171;-40
2023/04/05 04:45:47;;;;;;;9.57;4.30;;;1.00;99.90;;;;;;5067852;28;20127;-39
2023/04/05 04:48:15;;;;;;;11.98;5.10;;;0.90;99.90;;;;;;5067855;28;20143;-40
2023/04/05 04:50:42;;;;;;;9.15;4.05;;;;;;;;;;5067595;28;20052;-38
2023/04/05 04:53:09;;;;;;;10.73;4.57;;;0.90;99.90;;;;;;5067706;28;20063;-41
2023/04/05 04:55:35;;;;;;;9.13;4.55;;;1.00;99.90;;;;;;5068371;28;20063;-41
2023/04/05 04:58:08;;;;;;;9.00;4.15;;;0.90;99.90;;;;;;5067853;28;20410;-41
2023/04/05 05:00:34;;;;;;;10.60;4.95;;;0.90;99.90;;;;;;5067952;28;20054;-38
2023/04/05 05:03:00;;;;;;;10.65;4.78;;;0.90;99.90;;;;;;5066042;28;20052;-40
2023/04/05 05:05:26;;;;;;;8.93;4.10;;;0.90;99.90;;;;;;5067410;28;20520;-40
2023/04/05 05:07:52;;;;;;;10.70;4.85;;;0.90;99.90;;;;;;5065543;28;20529;-39
2023/04/05 05:10:19;;;;;;;10.05;4.53;;;0.90;99.90;;;;;;5067665;28;20139;-39
2023/04/05 05:12:45;;;;;;;12.07;4.65;;;0.90;99.90;;;;;;5068630;28;20055;-39
2023/04/05 05:15:11;;;;;;;10.85;4.63;;;1.00;99.90;;;;;;5067439;28;20060;-39
2023/04/05 05:17:38;;;;;;;9.90;5.20;;;1.00;99.90;;;;;;5067721;28;20163;-40
2023/04/05 05:20:07;;;;;;;9.82;4.93;;;1.00;99.90;;;;;;5066949;28;20064;-40
2023/04/05 05:22:34;;;;;;;11.43;5.18;;;0.90;99.90;;;;;;5067084;28;20048;-40
2023/04/05 05:24:59;;;;;;;9.23;4.40;;;0.90;99.90;;;;;;5067394;28;20052;-40
2023/04/05 05:27:25;;;;;;;9.38;4.97;;;0.90;99.90;;;;;;5067835;28;20120;-39
2023/04/05 05:29:51;;;;;;;10.43;4.65;;;0.90;99.90;;;;;;5067192;28;20507;-39
2023/04/05 05:32:16;;;;;;;10.32;4.40;;;0.90;99.90;;;;;;5066792;28;20118;-40
2023/04/05 05:34:43;;;;;;;10.00;4.60;;;0.90;99.90;;;;;;5067524;28;20414;-38
2023/04/05 05:37:10;;;;;;;7.75;4.10;;;0.90;99.90;;;;;;5066831;28;20202;-40
2023/04/05 05:39:36;;;;;;;10.18;4.80;;;0.90;99.90;;;;;;5067512;28;20048;-38
2023/04/05 05:42:02;;;;;;;9.73;5.10;;;0.90;99.90;;;;;;5066552;28;20044;-39
2023/04/05 05:44:29;;;;;;;11.18;4.78;;;1.00;99.90;;;;;;5067379;28;20045;-40
2023/04/05 05:46:55;;;;;;;11.60;4.97;;;1.00;99.90;;;;;;5048891;28;20048;-39
2023/04/05 05:49:22;;;;;;;13.07;5.25;;;1.10;99.90;;;;;;5049423;28;20051;-38
2023/04/05 05:51:48;;;;;;;9.38;4.20;;;1.10;99.90;;;;;;5066646;28;20076;-38
2023/04/05 05:54:14;;;;;;;10.38;5.35;;;1.10;99.90;;;;;;5067756;28;20071;-40
2023/04/05 05:56:40;;;;;;;11.32;4.63;;;1.20;99.90;;;;;;5049630;28;20533;-40
2023/04/05 05:59:05;;;;;;;10.98;5.13;;;1.20;99.90;;;;;;5066725;28;20052;-40
2023/04/05 06:01:33;;;;;;;10.88;5.55;;;1.20;99.90;;;;;;5067202;28;20118;-39
2023/04/05 06:03:59;;;;;;;8.75;4.35;;;1.30;99.90;;;;;;5040694;28;20143;-38
2023/04/05 06:06:25;;;;;;;12.27;5.13;;;1.30;99.90;;;;;;5067444;28;20087;-39
2023/04/05 06:08:51;;;;;;;9.15;5.10;;;1.40;99.90;;;;;;5066120;28;20063;-38
2023/04/05 06:11:22;;;;;;;10.20;4.32;;;1.40;99.90;;;;;;5067109;28;20052;-39
2023/04/05 06:13:51;;;;;;;10.40;4.63;;;1.50;99.90;;;;;;5067613;28;20098;-36
2023/04/05 06:16:17;;;;;;;9.77;5.25;;;1.50;99.90;;;;;;5066389;28;20076;-36
2023/04/05 06:18:43;;;;;;;10.00;5.97;;;1.60;99.90;;;;;;5067549;28;20137;-34
2023/04/05 06:21:09;;;;;;;10.18;5.43;;;1.60;99.90;;;;;;5048413;28;20052;-35
2023/04/05 06:23:35;;;;;;;11.18;4.70;;;1.70;99.90;;;;;;5067203;28;20055;-34
2023/04/05 06:26:01;;;;;;;15.60;6.22;;;1.80;99.90;;;;;;5066628;28;20105;-35
2023/04/05 06:28:26;;;;;;;12.50;5.32;;;1.80;99.90;;;;;;5069688;28;20060;-35
2023/04/05 06:30:54;;;;;;;11.95;5.47;;;1.80;99.90;;;;;;5053088;28;20471;-35
2023/04/05 06:33:20;;;;;;;10.77;5.10;;;1.90;99.90;;;;;;5070338;28;20064;-35
2023/04/05 06:35:46;;;;;;;10.45;5.53;;;1.90;99.90;;;;;;5070613;28;20056;-36
2023/04/05 06:38:11;;;;;;;13.20;4.50;;;2.00;99.90;;;;;;5070094;28;20080;-36
2023/04/05 06:40:38;;;;;;;7.57;4.38;;;2.00;99.90;;;;;;5070183;28;20563;-44
2023/04/05 06:43:03;;;;;;;12.75;5.25;;;2.10;99.90;;;;;;5052500;28;20143;-35
2023/04/05 06:45:30;;;;;;;10.00;5.03;;;2.10;99.90;;;;;;5052781;28;20166;-36
2023/04/05 06:47:56;;;;;;;9.07;5.07;;;2.20;99.90;;;;;;5070752;28;20044;-37
2023/04/05 06:50:21;;;;;;;9.10;4.97;;;2.20;99.90;;;;;;5070188;28;20052;-37
2023/04/05 06:52:47;;;;;;;9.35;5.13;;;2.30;99.90;;;;;;5070424;28;20071;-37
2023/04/05 06:55:13;;;;;;;8.65;5.22;;;2.40;99.90;;;;;;5069735;28;20409;-52
2023/04/05 06:57:38;;;;;;;10.95;5.93;;;2.40;99.90;;;;;;5070709;28;20040;-42
2023/04/05 07:00:12;;;;;;;9.50;5.10;;;2.50;99.90;;;;;;5069334;28;20037;-41
2023/04/05 07:02:37;;;;;;;9.93;4.63;;;2.60;99.90;;;;;;5070554;28;20059;-43
2023/04/05 07:05:04;;;;;;;8.77;5.30;;;2.60;99.90;;;;;;5053717;28;20048;-43
2023/04/05 07:07:32;;;;;;;11.63;5.78;;;2.70;99.90;;;;;;5070519;28;20052;-47
2023/04/05 07:09:58;;;;;;;10.10;5.13;;;2.70;99.90;;;;;;5070165;28;20052;-42
2023/04/05 07:12:23;;;;;;;9.75;5.43;;;2.80;99.90;;;;;;5069801;28;20064;-44
2023/04/05 07:14:49;;;;;;;10.02;5.00;;;2.90;99.90;;;;;;5070496;28;20048;-41
2023/04/05 07:17:15;;;;;;;11.43;6.25;;;3.00;99.90;;;;;;5069175;28;20040;-44
2023/04/05 07:19:41;;;;;;;11.50;5.40;;;3.00;99.90;;;;;;5070415;28;20052;-43
2023/04/05 07:22:07;;;;;;;9.00;4.97;;;3.10;99.90;;;;;;5069433;28;20044;-40
2023/04/05 07:24:32;;;;;;;10.85;5.22;;;3.20;99.90;;;;;;5070520;28;20047;-42
2023/04/05 07:26:58;;;;;;;8.98;4.93;;;3.20;99.90;;;;;;5070508;28;20409;-40
2023/04/05 07:29:25;;;;;;;9.93;4.78;;;3.30;99.90;;;;;;5069143;28;20048;-42
2023/04/05 07:31:50;;;;;;;9.73;5.05;;;3.40;99.90;;;;;;5070086;28;20124;-43
2023/04/05 07:34:16;;;;;;;8.20;4.05;;;3.50;99.90;;;;;;5068127;28;20127;-42
2023/04/05 07:36:42;;;;;;;10.30;5.43;;;3.50;99.90;;;;;;5069591;28;20057;-42
2023/04/05 07:39:07;;;;;;;9.77;4.40;;;3.60;99.90;;;;;;5067886;28;20558;-42
2023/04/05 07:41:36;;;;;;;7.45;4.10;;;3.70;99.90;;;;;;5069763;28;20053;-35
2023/04/05 07:44:02;;;;;;;7.32;4.07;;;3.70;99.90;;;;;;5069120;28;20350;-43
2023/04/05 07:46:28;;;;;;;10.80;4.72;;;3.90;99.90;;;;;;5068967;28;20520;-35
2023/04/05 07:48:54;;;;;;;9.43;5.00;;;3.90;99.90;;;;;;5069336;28;20143;-35
2023/04/05 07:51:20;;;;;;;9.80;4.63;;;4.00;99.90;;;;;;5068999;28;20223;-35
2023/04/05 07:53:46;;;;;;;9.07;5.05;;;4.10;99.90;;;;;;5069876;28;20070;-35
2023/04/05 07:56:13;;;;;;;9.88;4.95;;;4.20;99.90;;;;;;5054728;28;20101;-35
2023/04/05 07:58:40;;;;;;;6.85;4.05;;;4.30;99.90;;;;;;5069553;28;20505;-36
2023/04/05 08:01:06;;;;;;;8.55;4.50;;;4.40;99.90;;;;;;5068572;28;20064;-36
2023/04/05 08:03:35;;;;;;;7.72;3.72;;;4.50;99.90;;;;;;5068969;28;20065;-35
2023/04/05 08:06:10;;;;;;;6.78;3.90;;;4.50;99.90;;;;;;5069331;28;20048;-35
2023/04/05 08:08:36;;;;;;;9.02;5.38;;;4.70;99.90;;;;;;5068572;28;20052;-35
2023/04/05 08:11:05;;;;;;;7.90;4.10;;;4.80;99.90;;;;;;5069454;28;20054;-35
2023/04/05 08:13:32;;;;;;;6.88;4.15;;;4.90;99.90;;;;;;5052942;28;20135;-35
2023/04/05 08:16:00;;;;;;;8.35;4.45;;;5.00;99.90;;;;;;5069260;28;20131;-35
2023/04/05 08:18:25;;;;;;;9.63;4.47;;;5.20;99.90;;;;;;5068114;28;20497;-35
2023/04/05 08:20:53;;;;;;;7.53;4.13;;;5.30;99.90;;;;;;5067233;28;20122;-36
2023/04/05 08:23:19;;;;;;;6.25;3.65;;;5.40;99.90;;;;;;5067571;28;20056;-36
2023/04/05 08:25:45;;;;;;;6.15;3.50;;;5.50;99.90;;;;;;5068916;28;20078;-36
2023/04/05 08:28:10;;;;;;;7.70;4.15;;;5.60;99.90;;;;;;5068623;28;20052;-36
2023/04/05 08:30:37;;;;;;;9.13;4.03;;;5.70;99.90;;;;;;5068088;28;20558;-36
2023/04/05 08:33:03;;;;;;;8.05;3.72;;;5.80;99.90;;;;;;5068560;28;20048;-36
2023/04/05 08:35:29;;;;;;;11.60;4.20;;;6.00;99.90;;;;;;5060031;28;20057;-36
2023/04/05 08:37:55;;;;;;;9.23;3.83;;;6.10;99.90;;;;;;5068339;28;20072;-36
2023/04/05 08:40:28;;;;;;;7.88;3.72;;;6.20;99.90;;;;;;5067823;28;20056;-36
2023/04/05 08:43:07;;;;;;;6.20;3.45;;;6.30;99.90;;;;;;5066040;28;20052;-37
2023/04/05 08:45:35;;;;;;;6.55;3.03;;;6.40;99.90;;;;;;5067426;28;20139;-36
2023/04/05 08:48:01;;;;;;;5.47;3.15;;;6.50;99.90;;;;;;5068574;28;20048;-36
2023/04/05 08:50:26;;;;;;;6.13;3.13;;;6.60;99.90;;;;;;5067444;28;20393;-36
2023/04/05 08:52:52;;;;;;;7.75;3.85;;;6.70;99.90;;;;;;5067863;28;20052;-36
2023/04/05 08:55:18;;;;;;;7.00;3.72;;;6.80;99.90;;;;;;5067544;28;20052;-36
2023/04/05 08:57:49;;;;;;;7.78;2.88;;;6.90;99.90;;;;;;5069308;28;20044;-36
2023/04/05 09:00:15;;;;;;;5.03;2.88;;;7.10;99.90;;;;;;5067807;28;20041;-36
2023/04/05 09:02:43;;;;;;;6.57;2.92;;;7.20;99.90;;;;;;5067667;28;20078;-36
2023/04/05 09:05:10;;;;;;;6.65;2.80;;;7.30;99.90;;;;;;5068109;28;20052;-36
2023/04/05 09:07:37;;;;;;;6.50;2.80;;;7.40;99.90;;;;;;5067539;28;20190;-36
2023/04/05 09:10:05;;;;;;;6.90;3.10;;;7.50;99.90;;;;;;5067693;28;20561;-36
2023/04/05 09:12:31;;;;;;;6.05;2.80;;;7.60;99.90;;;;;;5067819;28;20518;-36
2023/04/05 09:15:00;;;;;;;6.15;2.63;;;7.70;99.90;;;;;;5067850;28;20507;-37
2023/04/05 09:17:27;;;;;;;5.60;2.70;;;7.80;99.90;;;;;;5067524;28;20052;-37
2023/04/05 09:19:53;;;;;;;6.07;2.53;;;7.90;99.90;;;;;;5065838;28;20097;-36
2023/04/05 09:22:21;;;;;;;7.50;2.67;;;8.00;99.90;;;;;;5068306;28;20048;-36
2023/04/05 09:24:47;;;;;;;4.70;2.55;;;8.00;99.90;;;;;;5068779;28;20043;-36
2023/04/05 09:27:14;;;;;;;4.97;2.72;;;8.10;99.90;;;;;;5068170;28;20068;-36
2023/04/05 09:29:45;;;;;;;6.13;2.95;;;8.20;99.90;;;;;;5066503;28;20049;-36
2023/04/05 09:32:12;;;;;;;6.50;2.90;;;8.30;99.90;;;;;;5068012;28;20052;-36
2023/04/05 09:34:39;;;;;;;5.90;2.70;;;8.30;99.90;;;;;;5067179;28;20044;-45
2023/04/05 09:37:16;;;;;;;6.30;2.90;;;8.40;99.90;;;;;;5076320;28;20051;-36
2023/04/05 09:39:43;;;;;;;7.22;2.95;;;8.60;99.90;;;;;;5066724;28;20044;-36
2023/04/05 09:42:10;;;;;;;4.53;2.35;;;8.60;99.90;;;;;;5067394;28;20235;-36
2023/04/05 09:44:55;;;;;;;5.70;2.58;;;8.70;99.90;;;;;;5059542;28;20045;-36
2023/04/05 09:47:23;;;;;;;6.93;2.90;;;8.80;99.90;;;;;;5067240;28;20425;-37
2023/04/05 09:49:50;;;;;;;5.72;2.75;;;8.90;99.90;;;;;;5067273;28;20109;-36
2023/04/05 09:52:23;;;;;;;6.00;3.00;;;9.00;99.90;;;;;;5067359;28;20572;-36
2023/04/05 09:54:51;;;;;;;5.70;3.10;;;9.00;99.90;;;;;;5060280;28;20080;-36
2023/04/05 09:57:17;;;;;;;6.25;2.47;;;9.00;99.90;;;;;;5066543;28;20067;-44
2023/04/05 09:59:45;;;;;;;6.22;3.00;;;9.00;99.90;;;;;;5066611;28;20047;-36
2023/04/05 10:02:10;;;;;;;10.55;2.80;;;9.20;99.90;;;;;;5068225;28;20072;-36
2023/04/05 10:04:43;;;;;;;6.40;2.65;;;9.20;99.90;;;;;;5070685;28;20053;-37
2023/04/05 10:07:13;;;;;;;5.78;2.92;;;9.30;99.90;;;;;;5071860;28;20174;-36
2023/04/05 10:09:40;;;;;;;4.60;2.50;;;9.40;99.90;;;;;;5068515;28;20360;-41
2023/04/05 10:12:10;;;;;;;6.95;2.72;;;9.50;99.90;;;;;;5063293;28;20536;-36
2023/04/05 10:14:36;;;;;;;5.43;2.67;;;9.50;99.90;;;;;;5069366;28;20055;-36
2023/04/05 10:17:35;;;;;;;10.82;2.90;;;9.50;99.90;;;;;;5071587;28;20390;-36
2023/04/05 10:20:18;;;;;;;8.05;2.55;;;9.60;99.90;;;;;;5069428;28;20060;-36
2023/04/05 10:22:49;;;;;;;;;;;9.70;99.90;;;;;;5070367;28;20048;-36
2023/04/05 10:25:18;;;;;;;6.35;2.95;;;9.80;99.90;;;;;;5075746;28;19916;-35
2023/04/05 10:27:56;;;;;;;4.95;2.60;;;9.90;99.90;;;;;;5071018;28;20055;-37
2023/04/05 10:30:25;;;;;;;5.50;2.50;;;9.90;99.90;;;;;;5069919;28;20052;-37
2023/04/05 10:33:03;;;;;;;6.63;3.60;;;9.90;99.90;;;;;;5064560;28;20056;-36
2023/04/05 10:35:40;;;;;;;5.68;2.63;;;10.00;99.90;;;;;;5068965;28;20502;-36
2023/04/05 10:38:21;;;;;;;6.70;2.90;;;10.10;99.90;;;;;;5069498;28;20087;-36
2023/04/05 10:40:48;;;;;;;6.35;2.97;;;10.00;99.90;;;;;;5069635;28;20079;-37
2023/04/05 10:43:19;;;;;;;4.95;2.90;;;9.90;99.90;;;;;;5071215;28;20131;-36
2023/04/05 10:45:48;;;;;;;5.80;3.08;;;10.00;99.90;;;;;;5069626;28;20137;-37
2023/04/05 10:48:48;;;;;;;4.68;2.55;;;10.00;99.90;;;;;;5070757;28;20505;-37
2023/04/05 10:51:14;;;;;;;5.03;2.30;;;10.00;99.90;;;;;;5034615;28;20608;-37
2023/04/05 10:53:40;;;;;;;4.28;2.17;;;10.20;99.90;;;;;;5070454;28;20056;-37
2023/04/05 10:56:07;;;;;;;4.43;2.20;;;10.30;99.90;;;;;;5069308;28;20056;-37
2023/04/05 10:58:34;;;;;;;6.60;2.47;;;10.50;99.90;;;;;;5070727;28;20044;-35
2023/04/05 11:01:01;;;;;;;4.38;2.20;;;10.70;99.90;;;;;;5070062;28;20520;-36
2023/04/05 11:03:47;;;;;;;6.30;2.50;;;10.80;99.90;;;;;;5062801;28;20058;-36
2023/04/05 11:06:31;;;;;;;6.38;2.35;;;10.80;99.90;;;;;;5069398;28;20059;-37
2023/04/05 11:09:10;;;;;;;5.57;2.22;;;10.90;99.90;;;;;;5067009;28;20048;-37
2023/04/05 11:11:41;;;;;;;6.15;2.70;;;11.00;99.90;;;;;;5058394;28;20612;-37
2023/04/05 11:14:21;;;;;;;4.43;2.10;;;11.00;99.90;;;;;;5058954;28;20421;-37
2023/04/05 11:16:52;;;;;;;4.38;2.40;;;11.00;99.90;;;;;;5072738;28;20501;-36
2023/04/05 11:19:18;;;;;;;6.90;2.85;;;10.90;99.90;;;;;;5069991;28;20488;-35
2023/04/05 11:21:43;;;;;;;6.45;3.08;;;10.80;99.90;;;;;;5067468;28;20131;-37
2023/04/05 11:24:14;;;;;;;3.60;1.92;;;10.80;99.90;;;;;;5072035;28;20419;-36
2023/04/05 11:26:39;;;;;;;5.43;2.40;;;10.80;99.90;;;;;;5067173;28;20417;-35
2023/04/05 11:29:06;;;;;;;5.50;2.60;;;10.90;99.90;;;;;;5068681;28;20052;-36
2023/04/05 11:31:32;;;;;;;5.15;2.45;;;11.00;99.90;;;;;;5062674;28;20477;-37
2023/04/05 11:34:04;;;;;;;8.38;3.15;;;11.20;99.90;;;;;;5068714;28;20067;-37
2023/04/05 11:36:37;;;;;;;6.43;2.38;;;11.30;99.90;;;;;;5065307;28;20060;-35
2023/04/05 11:39:29;;;;;;;4.18;2.47;;;11.30;99.90;;;;;;5071513;28;20083;-37
2023/04/05 11:41:55;;;;;;;4.53;1.93;;;11.30;99.90;;;;;;5063319;28;20494;-41
2023/04/05 11:44:22;;;;;;;4.43;2.38;;;11.20;99.90;;;;;;5066248;28;20057;-36
2023/04/05 11:46:48;;;;;;;6.88;1.95;;;11.30;99.90;;;;;;5070089;28;20051;-36
2023/04/05 11:49:14;;;;;;;5.32;2.90;;;11.30;99.90;;;;;;5065943;28;20053;-36
2023/04/05 11:51:47;;;;;;;5.35;2.40;;;11.30;99.90;;;;;;5070087;28;20048;-37
2023/04/05 11:54:14;;;;;;;4.80;2.53;;;11.30;99.90;;;;;;5067291;28;20056;-36
2023/04/05 11:56:41;;;;;;;8.23;2.33;;;11.40;99.90;;;;;;5069740;28;20522;-37
2023/04/05 11:59:12;;;;;;;6.47;2.60;;;11.50;99.90;;;;;;5063779;28;20052;-37
2023/04/05 12:01:38;;;;;;;5.22;2.50;;;11.60;99.90;;;;;;5068719;28;20061;-36
2023/04/05 12:04:06;;;;;;;3.67;2.15;;;11.70;99.90;;;;;;5068493;28;20060;-40
2023/04/05 12:06:32;;;;;;;5.03;2.13;;;11.90;99.90;;;;;;5065321;28;20253;-41
2023/04/05 12:08:57;;;;;;;5.95;2.28;;;12.20;99.90;;;;;;5071170;28;20131;-42
2023/04/05 12:11:28;;;;;;;4.55;1.98;;;12.40;99.90;;;;;;5064186;28;20049;-44
2023/04/05 12:13:57;;;;;;;5.80;2.20;;;12.30;99.90;;;;;;5065811;28;20053;-46
2023/04/05 12:16:23;;;;;;;4.45;2.25;;;12.40;99.90;;;;;;5065206;28;20048;-43
2023/04/05 12:18:56;;;;;;;3.92;2.20;;;12.40;99.90;;;;;;5051018;28;20395;-42
2023/04/05 12:21:22;;;;;;;4.50;2.15;;;12.60;99.90;;;;;;5067064;28;20091;-42
2023/04/05 12:23:52;;;;;;;4.75;2.17;;;12.70;99.90;;;;;;5068333;28;20097;-40
2023/04/05 12:26:18;;;;;;;4.70;2.40;;;12.40;99.90;;;;;;5067264;28;20052;-42
2023/04/05 12:28:59;;;;;;;4.90;2.20;;;12.50;99.90;;;;;;5065801;28;20138;-41
2023/04/05 12:31:41;;;;;;;5.85;2.72;;;12.70;99.90;;;;;;5066788;28;20490;-41
2023/04/05 12:34:07;;;;;;;4.28;2.33;;;12.90;99.90;;;;;;5064699;28;20498;-40
2023/04/05 12:36:33;;;;;;;4.93;2.67;;;13.10;99.90;;;;;;5067196;28;20067;-43
2023/04/05 12:39:00;;;;;;;4.10;2.30;;;13.30;99.90;;;;;;5068415;28;20515;-40
2023/04/05 12:41:28;;;;;;;4.57;2.28;;;13.40;99.90;;;;;;5065992;28;20056;-40
2023/04/05 12:44:00;;;;;;;5.65;2.28;;;13.70;99.90;;;;;;5068523;28;20056;-41
2023/04/05 12:46:43;;;;;;;5.75;2.60;;;13.90;99.90;;;;;;5066932;28;20058;-45
2023/04/05 12:49:18;;;;;;;;;;;14.00;99.90;;;;;;5067763;28;20544;-39
2023/04/05 12:51:47;;;;;;;5.32;2.47;;;14.20;99.90;;;;;;5067574;28;19974;-42
2023/04/05 12:54:20;;;;;;;5.80;2.50;;;14.40;99.90;;;;;;5064558;28;20427;-41
2023/04/05 12:56:48;;;;;;;4.20;2.42;;;14.50;99.90;;;;;;5060492;28;20078;-41
2023/04/05 12:59:14;;;;;;;5.15;2.97;;;14.70;99.90;;;;;;5063648;28;20150;-41
2023/04/05 13:01:40;;;;;;;5.50;2.30;;;14.70;99.90;;;;;;5066817;28;20506;-41